createdAt,value
2018-07-05T00:00:31.694Z,14.96
2018-07-05T00:01:38.169Z,15.00
2018-07-05T00:02:44.633Z,15.02
2018-07-05T00:03:51.096Z,15.04
2018-07-05T00:04:57.562Z,15.07
2018-07-05T00:06:04.033Z,15.09
2018-07-05T00:07:10.504Z,15.12
2018-07-05T00:08:16.963Z,15.11
2018-07-05T00:09:23.437Z,15.12
2018-07-05T00:10:29.917Z,15.14
2018-07-05T00:11:36.387Z,15.12
2018-07-05T00:12:42.855Z,15.06
2018-07-05T00:13:49.331Z,15.07
2018-07-05T00:14:55.883Z,15.09
2018-07-05T00:16:02.286Z,15.02
2018-07-05T00:17:08.750Z,14.95
2018-07-05T00:18:15.217Z,14.88
2018-07-05T00:19:21.705Z,14.98
2018-07-05T00:20:28.176Z,15.06
2018-07-05T00:21:34.642Z,15.10
2018-07-05T00:22:41.106Z,15.07
2018-07-05T00:23:47.583Z,15.06
2018-07-05T00:24:54.042Z,15.09
2018-07-05T00:26:00.523Z,15.19
2018-07-05T00:27:06.969Z,15.20
2018-07-05T00:28:13.443Z,15.17
2018-07-05T00:29:19.905Z,15.06
2018-07-05T00:30:26.372Z,14.97
2018-07-05T00:31:33.035Z,14.90
2018-07-05T00:32:39.308Z,14.91
2018-07-05T00:33:45.772Z,14.92
2018-07-05T00:34:52.243Z,14.94
2018-07-05T00:35:58.716Z,14.89
2018-07-05T00:37:05.174Z,14.85
2018-07-05T00:38:11.946Z,14.81
2018-07-05T00:39:18.103Z,14.81
2018-07-05T00:40:24.578Z,14.73
2018-07-05T00:41:31.030Z,14.63
2018-07-05T00:42:37.481Z,14.57
2018-07-05T00:43:43.940Z,14.56
2018-07-05T00:44:50.405Z,14.53
2018-07-05T00:45:56.891Z,14.47
2018-07-05T00:47:03.333Z,14.40
2018-07-05T00:48:09.878Z,14.37
2018-07-05T00:49:16.254Z,14.36
2018-07-05T00:50:22.708Z,14.48
2018-07-05T00:51:29.182Z,14.51
2018-07-05T00:52:35.632Z,14.49
2018-07-05T00:53:42.101Z,14.44
2018-07-05T00:54:48.559Z,14.38
2018-07-05T00:55:55.037Z,14.35
2018-07-05T00:57:01.483Z,14.38
2018-07-05T00:58:07.922Z,14.44
2018-07-05T00:59:14.379Z,14.50
2018-07-05T01:00:20.837Z,14.53
2018-07-05T01:01:27.295Z,14.49
2018-07-05T01:02:33.756Z,14.39
2018-07-05T01:03:40.210Z,14.29
2018-07-05T01:04:46.661Z,14.22
2018-07-05T01:05:53.119Z,14.20
2018-07-05T01:06:59.583Z,14.18
2018-07-05T01:08:06.041Z,14.19
2018-07-05T01:09:12.498Z,14.23
2018-07-05T01:10:18.948Z,14.29
2018-07-05T01:11:25.412Z,14.38
2018-07-05T01:12:31.879Z,14.40
2018-07-05T01:13:38.329Z,14.38
2018-07-05T01:14:44.788Z,14.30
2018-07-05T01:15:51.242Z,14.22
2018-07-05T01:16:57.714Z,14.16
2018-07-05T01:18:04.158Z,14.06
2018-07-05T01:19:10.625Z,14.01
2018-07-05T01:20:17.077Z,13.98
2018-07-05T01:21:24.535Z,13.96
2018-07-05T01:22:30.012Z,13.92
2018-07-05T01:23:36.464Z,14.02
2018-07-05T01:24:42.916Z,14.17
2018-07-05T01:25:49.374Z,14.17
2018-07-05T01:26:55.835Z,14.08
2018-07-05T01:28:02.288Z,14.06
2018-07-05T01:29:08.740Z,14.00
2018-07-05T01:30:15.185Z,13.93
2018-07-05T01:31:21.627Z,13.87
2018-07-05T01:32:28.088Z,13.81
2018-07-05T01:33:34.523Z,13.77
2018-07-05T01:34:40.961Z,13.73
2018-07-05T01:35:47.417Z,13.75
2018-07-05T01:36:53.852Z,13.79
2018-07-05T01:38:00.304Z,13.80
2018-07-05T01:39:06.755Z,13.79
2018-07-05T01:40:13.191Z,13.77
2018-07-05T01:41:20.648Z,13.76
2018-07-05T01:42:26.105Z,13.73
2018-07-05T01:43:32.543Z,13.77
2018-07-05T01:44:39.003Z,13.87
2018-07-05T01:45:45.436Z,13.97
2018-07-05T01:46:51.888Z,14.05
2018-07-05T01:47:58.350Z,14.07
2018-07-05T01:49:04.789Z,14.06
2018-07-05T01:50:11.248Z,14.02
2018-07-05T01:51:17.707Z,14.19
2018-07-05T01:52:24.151Z,14.17
2018-07-05T01:53:30.597Z,14.07
2018-07-05T01:54:37.029Z,13.98
2018-07-05T01:55:43.485Z,13.93
2018-07-05T01:56:49.919Z,14.02
2018-07-05T01:57:56.377Z,14.07
2018-07-05T01:59:02.813Z,14.15
2018-07-05T02:00:09.256Z,14.20
2018-07-05T02:01:15.693Z,14.13
2018-07-05T02:02:22.136Z,14.03
2018-07-05T02:03:28.592Z,13.92
2018-07-05T02:04:35.024Z,13.79
2018-07-05T02:05:41.469Z,13.74
2018-07-05T02:06:47.918Z,13.70
2018-07-05T02:07:54.371Z,13.64
2018-07-05T02:09:00.830Z,13.60
2018-07-05T02:10:07.284Z,13.53
2018-07-05T02:11:14.231Z,13.52
2018-07-05T02:12:20.204Z,13.53
2018-07-05T02:13:27.641Z,13.53
2018-07-05T02:14:33.166Z,13.53
2018-07-05T02:15:39.535Z,13.49
2018-07-05T02:16:45.985Z,13.43
2018-07-05T02:17:52.423Z,13.41
2018-07-05T02:18:58.882Z,13.52
2018-07-05T02:20:05.322Z,13.50
2018-07-05T02:21:11.765Z,13.42
2018-07-05T02:22:18.218Z,13.35
2018-07-05T02:23:24.669Z,13.30
2018-07-05T02:24:31.117Z,13.29
2018-07-05T02:25:37.562Z,13.33
2018-07-05T02:26:44.010Z,13.49
2018-07-05T02:27:50.453Z,13.51
2018-07-05T02:28:56.910Z,13.48
2018-07-05T02:30:03.354Z,13.40
2018-07-05T02:31:09.890Z,13.41
2018-07-05T02:32:16.242Z,13.42
2018-07-05T02:33:23.188Z,13.50
2018-07-05T02:34:29.142Z,13.52
2018-07-05T02:35:35.570Z,13.54
2018-07-05T02:36:42.026Z,13.51
2018-07-05T02:37:48.454Z,13.45
2018-07-05T02:38:54.906Z,13.40
2018-07-05T02:40:01.347Z,13.34
2018-07-05T02:41:07.781Z,13.34
2018-07-05T02:42:14.220Z,13.33
2018-07-05T02:43:20.665Z,13.31
2018-07-05T02:44:27.117Z,13.26
2018-07-05T02:45:33.548Z,13.21
2018-07-05T02:46:39.995Z,13.18
2018-07-05T02:47:46.939Z,13.19
2018-07-05T02:48:52.876Z,13.20
2018-07-05T02:49:59.335Z,13.15
2018-07-05T02:51:05.765Z,13.07
2018-07-05T02:52:12.210Z,12.99
2018-07-05T02:53:18.643Z,12.94
2018-07-05T02:54:25.101Z,12.96
2018-07-05T02:55:31.528Z,13.01
2018-07-05T02:56:37.983Z,13.03
2018-07-05T02:57:44.411Z,13.06
2018-07-05T02:58:50.858Z,13.07
2018-07-05T02:59:57.297Z,13.05
2018-07-05T03:01:03.723Z,13.02
2018-07-05T03:02:10.169Z,12.97
2018-07-05T03:03:16.606Z,12.99
2018-07-05T03:04:23.039Z,12.99
2018-07-05T03:05:29.458Z,13.05
2018-07-05T03:06:35.892Z,13.09
2018-07-05T03:07:42.317Z,13.21
2018-07-05T03:08:48.756Z,13.29
2018-07-05T03:09:55.199Z,13.28
2018-07-05T03:11:01.631Z,13.28
2018-07-05T03:12:08.061Z,13.18
2018-07-05T03:13:14.498Z,13.15
2018-07-05T03:14:20.929Z,13.18
2018-07-05T03:15:27.374Z,13.15
2018-07-05T03:16:33.885Z,13.09
2018-07-05T03:17:40.257Z,13.05
2018-07-05T03:18:46.680Z,13.02
2018-07-05T03:19:53.124Z,12.98
2018-07-05T03:20:59.570Z,12.96
2018-07-05T03:22:06.006Z,13.01
2018-07-05T03:23:12.450Z,13.04
2018-07-05T03:24:18.892Z,13.04
2018-07-05T03:25:25.336Z,12.96
2018-07-05T03:26:31.772Z,12.92
2018-07-05T03:27:38.214Z,12.91
2018-07-05T03:28:44.663Z,12.89
2018-07-05T03:29:51.098Z,12.93
2018-07-05T03:30:57.550Z,12.99
2018-07-05T03:32:03.980Z,13.03
2018-07-05T03:33:10.427Z,13.03
2018-07-05T03:34:17.892Z,13.01
2018-07-05T03:35:23.312Z,12.97
2018-07-05T03:36:29.761Z,13.04
2018-07-05T03:37:36.189Z,13.13
2018-07-05T03:38:42.626Z,13.23
2018-07-05T03:39:49.075Z,13.26
2018-07-05T03:40:55.520Z,13.28
2018-07-05T03:42:01.960Z,13.28
2018-07-05T03:43:08.591Z,13.32
2018-07-05T03:44:14.834Z,13.36
2018-07-05T03:45:21.272Z,13.44
2018-07-05T03:46:27.730Z,13.45
2018-07-05T03:47:35.169Z,13.43
2018-07-05T03:48:40.604Z,13.38
2018-07-05T03:49:47.239Z,13.32
2018-07-05T03:50:53.500Z,13.29
2018-07-05T03:51:59.940Z,13.29
2018-07-05T03:53:06.381Z,13.34
2018-07-05T03:54:12.834Z,13.39
2018-07-05T03:55:19.274Z,13.47
2018-07-05T03:56:25.737Z,13.51
2018-07-05T03:57:32.182Z,13.50
2018-07-05T03:58:38.623Z,13.55
2018-07-05T03:59:45.081Z,13.60
2018-07-05T04:00:51.539Z,13.60
2018-07-05T04:01:58.008Z,13.53
2018-07-05T04:03:04.454Z,13.50
2018-07-05T04:04:10.914Z,13.51
2018-07-05T04:05:17.369Z,13.51
2018-07-05T04:06:23.901Z,13.48
2018-07-05T04:07:30.287Z,13.46
2018-07-05T04:08:36.745Z,13.45
2018-07-05T04:09:43.207Z,13.44
2018-07-05T04:10:49.662Z,13.47
2018-07-05T04:11:56.127Z,13.45
2018-07-05T04:13:02.578Z,13.47
2018-07-05T04:14:09.046Z,13.45
2018-07-05T04:15:15.510Z,13.46
2018-07-05T04:16:22.990Z,13.49
2018-07-05T04:17:28.439Z,13.50
2018-07-05T04:18:34.929Z,13.49
2018-07-05T04:19:41.371Z,13.56
2018-07-05T04:20:47.836Z,13.63
2018-07-05T04:21:54.316Z,13.75
2018-07-05T04:23:00.788Z,13.89
2018-07-05T04:24:07.299Z,13.96
2018-07-05T04:25:13.756Z,13.94
2018-07-05T04:26:20.191Z,13.88
2018-07-05T04:27:26.685Z,13.88
2018-07-05T04:28:33.144Z,13.95
2018-07-05T04:29:39.609Z,14.06
2018-07-05T04:30:46.096Z,14.15
2018-07-05T04:31:52.581Z,14.20
2018-07-05T04:32:59.054Z,14.29
2018-07-05T04:34:05.560Z,14.40
2018-07-05T04:35:12.001Z,14.49
2018-07-05T04:36:18.460Z,14.53
2018-07-05T04:37:24.949Z,14.58
2018-07-05T04:38:31.423Z,14.60
2018-07-05T04:39:37.894Z,14.69
2018-07-05T04:40:45.364Z,14.79
2018-07-05T04:41:50.846Z,14.88
2018-07-05T04:42:57.331Z,14.94
2018-07-05T04:44:03.896Z,14.92
2018-07-05T04:45:10.290Z,14.94
2018-07-05T04:46:16.764Z,14.99
2018-07-05T04:47:23.264Z,15.08
2018-07-05T04:48:29.737Z,15.16
2018-07-05T04:49:36.216Z,15.26
2018-07-05T04:50:43.695Z,15.37
2018-07-05T04:51:49.184Z,15.46
2018-07-05T04:52:55.673Z,15.53
2018-07-05T04:54:02.153Z,15.56
2018-07-05T04:55:08.636Z,15.59
2018-07-05T04:56:15.133Z,15.61
2018-07-05T04:57:21.586Z,15.63
2018-07-05T04:58:28.075Z,15.65
2018-07-05T04:59:34.554Z,15.68
2018-07-05T05:00:41.029Z,15.72
2018-07-05T05:01:47.505Z,15.78
2018-07-05T05:02:53.989Z,15.81
2018-07-05T05:04:00.469Z,15.87
2018-07-05T05:05:06.952Z,15.93
2018-07-05T05:06:13.437Z,15.95
2018-07-05T05:07:19.915Z,15.98
2018-07-05T05:08:26.407Z,16.07
2018-07-05T05:09:32.882Z,16.12
2018-07-05T05:10:39.369Z,16.12
2018-07-05T05:11:45.855Z,16.05
2018-07-05T05:12:52.355Z,15.99
2018-07-05T05:13:58.841Z,15.93
2018-07-05T05:15:05.340Z,15.91
2018-07-05T05:16:11.898Z,15.92
2018-07-05T05:17:18.317Z,15.96
2018-07-05T05:18:24.815Z,15.97
2018-07-05T05:19:31.314Z,15.98
2018-07-05T05:20:37.824Z,16.02
2018-07-05T05:21:44.325Z,16.09
2018-07-05T05:22:50.830Z,16.12
2018-07-05T05:23:57.335Z,16.12
2018-07-05T05:25:03.847Z,16.14
2018-07-05T05:26:10.345Z,16.12
2018-07-05T05:27:16.868Z,16.16
2018-07-05T05:28:23.385Z,16.24
2018-07-05T05:29:29.894Z,16.30
2018-07-05T05:30:36.411Z,16.32
2018-07-05T05:31:42.920Z,16.32
2018-07-05T05:32:50.449Z,16.38
2018-07-05T05:33:55.976Z,16.48
2018-07-05T05:35:02.488Z,16.51
2018-07-05T05:36:09.011Z,16.47
2018-07-05T05:37:15.534Z,16.52
2018-07-05T05:38:22.067Z,16.54
2018-07-05T05:39:28.607Z,16.55
2018-07-05T05:40:35.123Z,16.55
2018-07-05T05:41:41.651Z,16.56
2018-07-05T05:42:48.185Z,16.58
2018-07-05T05:43:54.736Z,16.58
2018-07-05T05:45:01.257Z,16.62
2018-07-05T05:46:07.888Z,16.68
2018-07-05T05:47:14.349Z,16.79
2018-07-05T05:48:20.888Z,16.86
2018-07-05T05:49:27.432Z,16.95
2018-07-05T05:50:33.966Z,17.04
2018-07-05T05:51:40.512Z,17.10
2018-07-05T05:52:47.055Z,17.15
2018-07-05T05:53:53.917Z,17.19
2018-07-05T05:55:01.157Z,17.27
2018-07-05T05:56:06.706Z,17.31
2018-07-05T05:57:13.258Z,17.37
2018-07-05T05:58:19.889Z,17.42
2018-07-05T05:59:26.371Z,17.46
2018-07-05T06:00:32.924Z,17.49
2018-07-05T06:01:39.472Z,17.53
2018-07-05T06:02:46.024Z,17.56
2018-07-05T06:03:52.581Z,17.57
2018-07-05T06:04:59.138Z,17.58
2018-07-05T06:06:05.686Z,17.62
2018-07-05T06:07:12.241Z,17.70
2018-07-05T06:08:18.801Z,17.74
2018-07-05T06:09:25.373Z,17.76
2018-07-05T06:10:31.925Z,17.80
2018-07-05T06:11:38.488Z,17.93
2018-07-05T06:12:45.058Z,18.00
2018-07-05T06:13:51.619Z,18.06
2018-07-05T06:14:58.200Z,18.16
2018-07-05T06:16:04.753Z,18.25
2018-07-05T06:17:11.321Z,18.27
2018-07-05T06:18:17.881Z,18.29
2018-07-05T06:19:24.462Z,18.34
2018-07-05T06:20:31.030Z,18.39
2018-07-05T06:21:37.603Z,18.44
2018-07-05T06:22:44.167Z,18.46
2018-07-05T06:23:50.751Z,18.47
2018-07-05T06:24:57.323Z,18.51
2018-07-05T06:26:03.896Z,18.58
2018-07-05T06:27:10.463Z,18.64
2018-07-05T06:28:17.050Z,18.69
2018-07-05T06:29:23.622Z,18.72
2018-07-05T06:30:30.203Z,18.74
2018-07-05T06:31:36.781Z,18.79
2018-07-05T06:32:43.362Z,18.80
2018-07-05T06:33:49.947Z,18.87
2018-07-05T06:34:56.539Z,18.94
2018-07-05T06:36:03.116Z,19.04
2018-07-05T06:37:09.700Z,19.11
2018-07-05T06:38:16.308Z,19.17
2018-07-05T06:39:22.892Z,19.25
2018-07-05T06:40:29.489Z,19.32
2018-07-05T06:41:36.094Z,19.36
2018-07-05T06:42:42.693Z,19.39
2018-07-05T06:43:49.884Z,19.46
2018-07-05T06:44:55.908Z,19.54
2018-07-05T06:46:02.522Z,19.63
2018-07-05T06:47:09.129Z,19.70
2018-07-05T06:48:15.733Z,19.82
2018-07-05T06:49:22.398Z,19.94
2018-07-05T06:50:29.476Z,20.05
2018-07-05T06:51:35.597Z,20.17
2018-07-05T06:52:42.206Z,20.27
2018-07-05T06:53:48.833Z,20.35
2018-07-05T06:54:55.455Z,20.43
2018-07-05T06:56:02.100Z,20.51
2018-07-05T06:57:08.721Z,20.60
2018-07-05T06:58:15.347Z,20.64
2018-07-05T06:59:21.984Z,20.66
2018-07-05T07:00:28.624Z,20.68
2018-07-05T07:01:35.261Z,20.74
2018-07-05T07:02:41.894Z,20.85
2018-07-05T07:03:48.535Z,20.93
2018-07-05T07:04:55.175Z,20.96
2018-07-05T07:06:01.902Z,21.05
2018-07-05T07:07:08.462Z,21.12
2018-07-05T07:08:15.105Z,21.22
2018-07-05T07:09:21.745Z,21.34
2018-07-05T07:10:28.409Z,21.45
2018-07-05T07:11:35.057Z,21.64
2018-07-05T07:12:41.724Z,21.80
2018-07-05T07:13:48.374Z,21.94
2018-07-05T07:14:55.028Z,21.99
2018-07-05T07:16:01.773Z,22.07
2018-07-05T07:17:08.366Z,22.26
2018-07-05T07:18:15.031Z,23.14
2018-07-05T07:19:21.700Z,24.82
2018-07-05T07:20:28.373Z,25.91
2018-07-05T07:21:35.123Z,26.70
2018-07-05T07:22:41.703Z,28.11
2018-07-05T07:23:48.381Z,30.23
2018-07-05T07:24:55.053Z,32.33
2018-07-05T07:26:01.747Z,33.71
2018-07-05T07:27:08.424Z,34.72
2018-07-05T07:28:15.102Z,35.56
2018-07-05T07:29:21.884Z,35.08
2018-07-05T07:30:28.492Z,33.32
2018-07-05T07:31:35.229Z,32.11
2018-07-05T07:32:41.884Z,32.12
2018-07-05T07:33:48.602Z,33.00
2018-07-05T07:34:55.293Z,34.05
2018-07-05T07:36:02.313Z,35.05
2018-07-05T07:37:08.723Z,35.53
2018-07-05T07:38:15.446Z,35.95
2018-07-05T07:39:22.157Z,36.51
2018-07-05T07:40:28.874Z,36.96
2018-07-05T07:41:35.606Z,36.78
2018-07-05T07:42:42.318Z,36.19
2018-07-05T07:43:49.063Z,35.63
2018-07-05T07:44:55.885Z,34.96
2018-07-05T07:46:02.531Z,34.16
2018-07-05T07:47:09.274Z,33.01
2018-07-05T07:48:16.016Z,32.03
2018-07-05T07:49:22.766Z,31.08
2018-07-05T07:50:29.513Z,29.99
2018-07-05T07:51:36.280Z,29.21
2018-07-05T07:52:43.039Z,28.65
2018-07-05T07:53:49.891Z,28.04
2018-07-05T07:54:56.548Z,27.68
2018-07-05T07:56:03.326Z,27.49
2018-07-05T07:57:10.114Z,27.32
2018-07-05T07:58:16.934Z,27.12
2018-07-05T07:59:23.663Z,27.06
2018-07-05T08:00:30.451Z,26.96
2018-07-05T08:01:37.260Z,26.83
2018-07-05T08:02:44.065Z,26.76
2018-07-05T08:03:50.854Z,26.61
2018-07-05T08:04:57.656Z,26.36
2018-07-05T08:06:04.459Z,26.32
2018-07-05T08:07:11.270Z,26.32
2018-07-05T08:08:18.125Z,26.32
2018-07-05T08:09:24.876Z,26.34
2018-07-05T08:10:31.699Z,26.37
2018-07-05T08:11:38.510Z,26.38
2018-07-05T08:12:45.320Z,26.37
2018-07-05T08:13:52.135Z,26.41
2018-07-05T08:14:58.988Z,26.45
2018-07-05T08:16:05.756Z,26.45
2018-07-05T08:17:12.589Z,26.47
2018-07-05T08:18:19.402Z,26.56
2018-07-05T08:19:26.216Z,26.59
2018-07-05T08:20:33.144Z,26.62
2018-07-05T08:21:39.867Z,26.73
2018-07-05T08:22:46.717Z,26.86
2018-07-05T08:23:53.525Z,27.01
2018-07-05T08:25:00.381Z,27.09
2018-07-05T08:26:07.201Z,27.21
2018-07-05T08:27:14.048Z,27.36
2018-07-05T08:28:20.883Z,27.53
2018-07-05T08:29:27.720Z,27.69
2018-07-05T08:30:34.560Z,27.83
2018-07-05T08:31:41.419Z,27.97
2018-07-05T08:32:48.250Z,28.03
2018-07-05T08:33:55.121Z,27.96
2018-07-05T08:35:01.976Z,27.98
2018-07-05T08:36:08.824Z,28.07
2018-07-05T08:37:15.754Z,28.21
2018-07-05T08:38:22.568Z,28.38
2018-07-05T08:39:29.430Z,28.54
2018-07-05T08:40:36.351Z,28.57
2018-07-05T08:41:43.194Z,28.59
2018-07-05T08:42:50.072Z,28.63
2018-07-05T08:43:56.970Z,28.72
2018-07-05T08:45:03.852Z,28.83
2018-07-05T08:46:10.738Z,28.83
2018-07-05T08:47:17.632Z,28.81
2018-07-05T08:48:24.539Z,28.88
2018-07-05T08:49:31.436Z,28.87
2018-07-05T08:50:38.340Z,28.91
2018-07-05T08:51:45.270Z,28.91
2018-07-05T08:52:52.151Z,28.90
2018-07-05T08:53:59.069Z,29.06
2018-07-05T08:55:05.984Z,29.18
2018-07-05T08:56:13.901Z,29.20
2018-07-05T08:57:19.821Z,29.24
2018-07-05T08:58:26.744Z,29.30
2018-07-05T08:59:33.673Z,29.38
2018-07-05T09:00:40.894Z,29.46
2018-07-05T09:01:47.708Z,29.45
2018-07-05T09:02:54.443Z,29.38
2018-07-05T09:04:01.384Z,29.32
2018-07-05T09:05:08.307Z,29.21
2018-07-05T09:06:15.233Z,29.12
2018-07-05T09:07:22.154Z,29.00
2018-07-05T09:08:29.084Z,29.02
2018-07-05T09:09:36.016Z,29.02
2018-07-05T09:10:42.929Z,29.01
2018-07-05T09:11:49.877Z,28.97
2018-07-05T09:12:56.779Z,28.99
2018-07-05T09:14:03.713Z,28.98
2018-07-05T09:15:10.637Z,28.95
2018-07-05T09:16:17.554Z,28.97
2018-07-05T09:17:24.505Z,29.09
2018-07-05T09:18:31.405Z,29.20
2018-07-05T09:19:38.335Z,29.36
2018-07-05T09:20:45.262Z,29.39
2018-07-05T09:21:52.178Z,29.25
2018-07-05T09:22:59.103Z,29.15
2018-07-05T09:24:06.043Z,29.21
2018-07-05T09:25:12.984Z,29.20
2018-07-05T09:26:19.909Z,29.33
2018-07-05T09:27:26.841Z,29.49
2018-07-05T09:28:33.769Z,29.46
2018-07-05T09:29:40.703Z,29.73
2018-07-05T09:30:47.648Z,29.75
2018-07-05T09:31:54.579Z,29.81
2018-07-05T09:33:01.518Z,29.81
2018-07-05T09:34:09.459Z,29.86
2018-07-05T09:35:15.413Z,29.95
2018-07-05T09:36:22.342Z,29.95
2018-07-05T09:37:29.296Z,29.87
2018-07-05T09:38:36.226Z,29.97
2018-07-05T09:39:43.167Z,30.04
2018-07-05T09:40:50.120Z,30.03
2018-07-05T09:41:57.047Z,30.03
2018-07-05T09:43:04.000Z,30.05
2018-07-05T09:44:10.945Z,30.24
2018-07-05T09:45:17.903Z,30.43
2018-07-05T09:46:24.868Z,30.54
2018-07-05T09:47:31.889Z,30.61
2018-07-05T09:48:38.756Z,30.70
2018-07-05T09:49:45.760Z,30.85
2018-07-05T09:50:52.691Z,30.92
2018-07-05T09:51:59.664Z,31.01
2018-07-05T09:53:06.590Z,31.07
2018-07-05T09:54:13.552Z,31.25
2018-07-05T09:55:20.524Z,31.38
2018-07-05T09:56:27.496Z,31.40
2018-07-05T09:57:34.448Z,31.25
2018-07-05T09:58:41.417Z,31.10
2018-07-05T09:59:48.387Z,31.10
2018-07-05T10:00:55.362Z,31.09
2018-07-05T10:02:02.329Z,31.21
2018-07-05T10:03:09.299Z,31.49
2018-07-05T10:04:16.281Z,31.70
2018-07-05T10:05:23.271Z,31.77
2018-07-05T10:06:30.233Z,31.80
2018-07-05T10:07:37.220Z,31.81
2018-07-05T10:08:44.212Z,31.77
2018-07-05T10:09:51.201Z,31.66
2018-07-05T10:10:58.197Z,31.67
2018-07-05T10:12:05.180Z,31.77
2018-07-05T10:13:12.527Z,31.76
2018-07-05T10:14:19.186Z,31.82
2018-07-05T10:15:26.194Z,31.93
2018-07-05T10:16:33.223Z,32.16
2018-07-05T10:17:40.227Z,32.27
2018-07-05T10:18:47.253Z,32.59
2018-07-05T10:19:54.281Z,32.90
2018-07-05T10:21:01.328Z,33.25
2018-07-05T10:22:08.367Z,33.54
2018-07-05T10:23:15.419Z,33.77
2018-07-05T10:24:22.477Z,33.77
2018-07-05T10:25:29.549Z,33.95
2018-07-05T10:26:36.620Z,34.15
2018-07-05T10:27:43.685Z,34.09
2018-07-05T10:28:50.762Z,34.14
2018-07-05T10:29:57.834Z,34.01
2018-07-05T10:31:04.911Z,33.68
2018-07-05T10:32:11.987Z,33.21
2018-07-05T10:33:19.040Z,33.02
2018-07-05T10:34:26.116Z,33.01
2018-07-05T10:35:33.181Z,33.24
2018-07-05T10:36:40.272Z,33.52
2018-07-05T10:37:47.347Z,33.60
2018-07-05T10:38:54.453Z,33.79
2018-07-05T10:40:02.556Z,34.28
2018-07-05T10:41:08.667Z,34.60
2018-07-05T10:42:15.802Z,35.07
2018-07-05T10:43:22.924Z,35.47
2018-07-05T10:44:30.071Z,35.51
2018-07-05T10:45:37.228Z,35.48
2018-07-05T10:46:44.405Z,35.62
2018-07-05T10:47:52.577Z,35.71
2018-07-05T10:48:58.763Z,35.81
2018-07-05T10:50:05.959Z,35.45
2018-07-05T10:51:13.152Z,35.42
2018-07-05T10:52:20.371Z,35.54
2018-07-05T10:53:27.573Z,35.61
2018-07-05T10:54:34.775Z,35.59
2018-07-05T10:55:41.993Z,35.45
2018-07-05T10:56:49.203Z,35.28
2018-07-05T10:57:56.392Z,35.29
2018-07-05T10:59:03.623Z,35.27
2018-07-05T11:00:10.835Z,35.14
2018-07-05T11:01:18.063Z,35.02
2018-07-05T11:02:25.287Z,34.77
2018-07-05T11:03:32.481Z,34.09
2018-07-05T11:04:39.673Z,34.17
2018-07-05T11:05:46.879Z,34.23
2018-07-05T11:06:55.069Z,34.12
2018-07-05T11:08:01.265Z,33.89
2018-07-05T11:09:08.452Z,33.34
2018-07-05T11:10:15.628Z,32.85
2018-07-05T11:11:22.787Z,32.13
2018-07-05T11:12:29.927Z,31.27
2018-07-05T11:13:37.042Z,29.89
2018-07-05T11:14:44.145Z,27.96
2018-07-05T11:15:51.158Z,25.52
2018-07-05T11:16:58.180Z,23.63
2018-07-05T11:18:05.161Z,22.95
2018-07-05T11:19:12.136Z,22.74
2018-07-05T11:20:19.075Z,22.73
2018-07-05T11:21:26.021Z,22.94
2018-07-05T11:22:32.956Z,23.18
2018-07-05T11:23:39.879Z,23.40
2018-07-05T11:24:46.809Z,23.51
2018-07-05T11:25:53.725Z,23.52
2018-07-05T11:27:00.641Z,23.46
2018-07-05T11:28:07.566Z,23.37
2018-07-05T11:29:14.481Z,23.43
2018-07-05T11:30:21.388Z,23.54
2018-07-05T11:31:28.308Z,23.56
2018-07-05T11:32:35.217Z,23.51
2018-07-05T11:33:42.147Z,23.53
2018-07-05T11:34:49.062Z,23.55
2018-07-05T11:35:55.988Z,23.67
2018-07-05T11:37:02.936Z,23.96
2018-07-05T11:38:09.908Z,24.42
2018-07-05T11:39:16.973Z,24.80
2018-07-05T11:40:24.081Z,25.27
2018-07-05T11:41:31.230Z,25.62
2018-07-05T11:42:38.424Z,26.03
2018-07-05T11:43:45.529Z,26.48
2018-07-05T11:44:52.654Z,26.87
2018-07-05T11:45:59.793Z,27.36
2018-07-05T11:47:06.918Z,27.44
2018-07-05T11:48:14.036Z,27.69
2018-07-05T11:49:21.176Z,27.81
2018-07-05T11:50:28.314Z,28.25
2018-07-05T11:51:35.529Z,28.68
2018-07-05T11:52:42.895Z,28.73
2018-07-05T11:53:50.178Z,28.91
2018-07-05T11:54:57.627Z,29.09
2018-07-05T11:56:05.060Z,29.25
2018-07-05T11:57:12.548Z,29.37
2018-07-05T11:58:20.063Z,29.77
2018-07-05T11:59:27.602Z,29.96
2018-07-05T12:00:35.115Z,30.06
2018-07-05T12:01:42.635Z,30.12
2018-07-05T12:02:50.107Z,30.33
2018-07-05T12:03:57.600Z,30.29
2018-07-05T12:05:05.082Z,30.19
2018-07-05T12:06:12.528Z,30.07
2018-07-05T12:07:19.964Z,30.08
2018-07-05T12:08:27.387Z,30.33
2018-07-05T12:09:34.909Z,30.28
2018-07-05T12:10:42.288Z,30.14
2018-07-05T12:11:49.632Z,30.02
2018-07-05T12:12:56.991Z,29.82
2018-07-05T12:14:04.333Z,29.62
2018-07-05T12:15:11.686Z,29.32
2018-07-05T12:16:19.034Z,29.25
2018-07-05T12:17:26.396Z,29.21
2018-07-05T12:18:33.727Z,29.28
2018-07-05T12:19:41.053Z,29.02
2018-07-05T12:20:48.337Z,28.71
2018-07-05T12:21:55.609Z,28.54
2018-07-05T12:23:02.855Z,28.57
2018-07-05T12:24:10.097Z,28.58
2018-07-05T12:25:17.286Z,28.49
2018-07-05T12:26:24.450Z,28.31
2018-07-05T12:27:31.604Z,28.09
2018-07-05T12:28:38.729Z,27.87
2018-07-05T12:29:45.844Z,27.69
2018-07-05T12:30:52.964Z,27.62
2018-07-05T12:32:00.072Z,27.79
2018-07-05T12:33:07.187Z,27.95
2018-07-05T12:34:14.352Z,28.08
2018-07-05T12:35:21.565Z,28.12
2018-07-05T12:36:28.840Z,28.19
2018-07-05T12:37:36.155Z,28.35
2018-07-05T12:38:43.471Z,28.39
2018-07-05T12:39:50.891Z,28.65
2018-07-05T12:40:58.156Z,28.84
2018-07-05T12:42:05.519Z,29.15
2018-07-05T12:43:13.021Z,29.21
2018-07-05T12:44:20.250Z,29.24
2018-07-05T12:45:27.606Z,29.25
2018-07-05T12:46:34.952Z,28.91
2018-07-05T12:47:42.289Z,28.78
2018-07-05T12:48:49.608Z,28.52
2018-07-05T12:49:57.943Z,28.44
2018-07-05T12:51:04.263Z,28.43
2018-07-05T12:52:11.520Z,28.16
2018-07-05T12:53:18.888Z,27.74
2018-07-05T12:54:26.054Z,27.45
2018-07-05T12:55:33.290Z,27.14
2018-07-05T12:56:40.508Z,27.26
2018-07-05T12:57:48.673Z,27.27
2018-07-05T12:58:54.880Z,27.17
2018-07-05T13:00:03.033Z,26.93
2018-07-05T13:01:09.197Z,26.86
2018-07-05T13:02:16.301Z,26.80
2018-07-05T13:03:23.408Z,26.71
2018-07-05T13:04:30.523Z,26.57
2018-07-05T13:05:37.585Z,26.34
2018-07-05T13:06:44.637Z,25.99
2018-07-05T13:07:51.678Z,25.51
2018-07-05T13:08:58.715Z,25.21
2018-07-05T13:10:05.725Z,25.22
2018-07-05T13:11:12.737Z,25.15
2018-07-05T13:12:19.713Z,25.10
2018-07-05T13:13:26.690Z,25.02
2018-07-05T13:14:33.654Z,24.76
2018-07-05T13:15:40.598Z,24.47
2018-07-05T13:16:47.550Z,24.25
2018-07-05T13:17:54.492Z,24.05
2018-07-05T13:19:01.409Z,23.91
2018-07-05T13:20:08.350Z,23.90
2018-07-05T13:21:15.268Z,23.92
2018-07-05T13:22:22.178Z,23.96
2018-07-05T13:23:29.083Z,24.02
2018-07-05T13:24:35.996Z,24.09
2018-07-05T13:25:42.910Z,24.16
2018-07-05T13:26:49.831Z,24.25
2018-07-05T13:27:56.728Z,24.39
2018-07-05T13:29:03.647Z,24.44
2018-07-05T13:30:10.547Z,24.48
2018-07-05T13:31:17.467Z,24.68
2018-07-05T13:32:24.372Z,24.77
2018-07-05T13:33:31.282Z,24.82
2018-07-05T13:34:38.205Z,24.88
2018-07-05T13:35:45.105Z,24.61
2018-07-05T13:36:52.018Z,24.48
2018-07-05T13:37:58.930Z,24.43
2018-07-05T13:39:05.887Z,24.42
2018-07-05T13:40:12.673Z,24.42
2018-07-05T13:41:19.577Z,24.51
2018-07-05T13:42:26.432Z,24.52
2018-07-05T13:43:33.299Z,24.41
2018-07-05T13:44:40.179Z,24.19
2018-07-05T13:45:47.018Z,24.12
2018-07-05T13:46:53.918Z,24.04
2018-07-05T13:48:00.655Z,24.08
2018-07-05T13:49:07.484Z,23.95
2018-07-05T13:50:14.290Z,23.75
2018-07-05T13:51:21.082Z,23.29
2018-07-05T13:52:27.903Z,23.03
2018-07-05T13:53:34.683Z,22.71
2018-07-05T13:54:41.434Z,22.29
2018-07-05T13:55:48.178Z,22.00
2018-07-05T13:56:55.049Z,21.62
2018-07-05T13:58:01.670Z,21.30
2018-07-05T13:59:08.368Z,20.90
2018-07-05T14:00:15.066Z,20.54
2018-07-05T14:01:21.759Z,20.27
2018-07-05T14:02:28.660Z,20.00
2018-07-05T14:03:35.371Z,19.77
2018-07-05T14:04:41.903Z,19.62
2018-07-05T14:05:48.551Z,19.46
2018-07-05T14:06:55.121Z,19.27
2018-07-05T14:08:01.827Z,19.25
2018-07-05T14:09:08.395Z,19.10
2018-07-05T14:10:15.050Z,19.04
2018-07-05T14:11:21.665Z,18.93
2018-07-05T14:12:28.284Z,18.88
2018-07-05T14:13:34.896Z,18.84
2018-07-05T14:14:41.497Z,18.76
2018-07-05T14:15:48.119Z,18.74
2018-07-05T14:16:54.720Z,18.70
2018-07-05T14:18:01.336Z,18.69
2018-07-05T14:19:07.939Z,18.73